METAR Data
IDs: Format: Raw Decoded Include TAF

Data at: 0234 UTC 25 Jan 2020

METAR for:KAXA (Algona Muni, IA, US)
Text:KAXA 250215Z AUTO 34009G15KT 6SM BR OVC007 M02/M02 A2996 RMK A01
Temperature: -2.0°C ( 28°F)
Dewpoint: -2.0°C ( 28°F) [RH = 100%]
Pressure (altimeter):29.96 inches Hg (1014.6 mb)
Winds:from the NNW (340 degrees) at 10 MPH (9 knots; 4.6 m/s) gusting to 17 MPH (15 knots; 7.7 m/s)
Visibility: 6 sm ( 10 km)
Ceiling:700 feet AGL
Clouds: overcast cloud deck at 700 feet AGL
Weather:BR (mist)
QC Flag:automated observation with no human augmentation